sensor_id;sensor_type;location;lat;lon;timestamp;P1;durP1;ratioP1;P2;durP2;ratioP2
21802;SDS011;18591;47.080;22.214;2023-01-10T00:00:03;17.35;;;11.60;;
21802;SDS011;18591;47.080;22.214;2023-01-10T00:02:06;13.02;;;10.32;;
21802;SDS011;18591;47.080;22.214;2023-01-10T00:04:08;13.60;;;10.73;;
21802;SDS011;18591;47.080;22.214;2023-01-10T00:06:10;14.50;;;10.07;;
21802;SDS011;18591;47.080;22.214;2023-01-10T00:08:15;17.38;;;9.63;;
21802;SDS011;18591;47.080;22.214;2023-01-10T00:10:18;15.00;;;10.40;;
21802;SDS011;18591;47.080;22.214;2023-01-10T00:12:20;12.40;;;9.73;;
21802;SDS011;18591;47.080;22.214;2023-01-10T00:14:40;12.10;;;9.07;;
21802;SDS011;18591;47.080;22.214;2023-01-10T00:16:42;13.10;;;9.60;;
21802;SDS011;18591;47.080;22.214;2023-01-10T00:18:44;15.63;;;9.18;;
21802;SDS011;18591;47.080;22.214;2023-01-10T00:20:46;10.70;;;8.60;;
21802;SDS011;18591;47.080;22.214;2023-01-10T00:22:49;13.45;;;9.38;;
21802;SDS011;18591;47.080;22.214;2023-01-10T00:24:51;12.63;;;9.43;;
21802;SDS011;18591;47.080;22.214;2023-01-10T00:26:54;13.63;;;10.48;;
21802;SDS011;18591;47.080;22.214;2023-01-10T00:28:55;17.07;;;11.20;;
21802;SDS011;18591;47.080;22.214;2023-01-10T00:30:57;16.35;;;11.43;;
21802;SDS011;18591;47.080;22.214;2023-01-10T00:33:07;15.52;;;11.18;;
21802;SDS011;18591;47.080;22.214;2023-01-10T00:35:10;15.15;;;10.48;;
21802;SDS011;18591;47.080;22.214;2023-01-10T00:37:13;15.52;;;12.57;;
21802;SDS011;18591;47.080;22.214;2023-01-10T00:39:15;16.00;;;11.05;;
21802;SDS011;18591;47.080;22.214;2023-01-10T00:41:20;14.68;;;10.70;;
21802;SDS011;18591;47.080;22.214;2023-01-10T00:43:40;15.07;;;11.23;;
21802;SDS011;18591;47.080;22.214;2023-01-10T00:45:57;14.98;;;10.27;;
21802;SDS011;18591;47.080;22.214;2023-01-10T00:48:00;13.40;;;9.35;;
21802;SDS011;18591;47.080;22.214;2023-01-10T00:50:02;11.55;;;8.85;;
21802;SDS011;18591;47.080;22.214;2023-01-10T00:52:06;14.30;;;8.68;;
21802;SDS011;18591;47.080;22.214;2023-01-10T00:54:08;10.13;;;7.65;;
21802;SDS011;18591;47.080;22.214;2023-01-10T00:56:11;14.63;;;9.53;;
21802;SDS011;18591;47.080;22.214;2023-01-10T00:58:13;11.00;;;8.52;;
21802;SDS011;18591;47.080;22.214;2023-01-10T01:00:16;11.35;;;8.30;;
21802;SDS011;18591;47.080;22.214;2023-01-10T01:02:18;9.07;;;7.30;;
21802;SDS011;18591;47.080;22.214;2023-01-10T01:04:20;9.27;;;6.70;;
21802;SDS011;18591;47.080;22.214;2023-01-10T01:06:22;8.93;;;6.93;;
21802;SDS011;18591;47.080;22.214;2023-01-10T01:08:24;12.20;;;7.43;;
21802;SDS011;18591;47.080;22.214;2023-01-10T01:10:26;10.00;;;7.13;;
21802;SDS011;18591;47.080;22.214;2023-01-10T01:12:28;8.73;;;7.10;;
21802;SDS011;18591;47.080;22.214;2023-01-10T01:14:30;11.05;;;7.15;;
21802;SDS011;18591;47.080;22.214;2023-01-10T01:16:32;8.50;;;7.18;;
21802;SDS011;18591;47.080;22.214;2023-01-10T01:18:34;9.02;;;7.15;;
21802;SDS011;18591;47.080;22.214;2023-01-10T01:20:37;11.02;;;7.22;;
21802;SDS011;18591;47.080;22.214;2023-01-10T01:22:40;10.38;;;7.93;;
21802;SDS011;18591;47.080;22.214;2023-01-10T01:24:42;9.82;;;7.80;;
21802;SDS011;18591;47.080;22.214;2023-01-10T01:26:44;13.45;;;8.18;;
21802;SDS011;18591;47.080;22.214;2023-01-10T01:28:46;10.45;;;8.30;;
21802;SDS011;18591;47.080;22.214;2023-01-10T01:30:48;11.32;;;8.50;;
21802;SDS011;18591;47.080;22.214;2023-01-10T01:32:50;15.70;;;9.98;;
21802;SDS011;18591;47.080;22.214;2023-01-10T01:34:52;14.63;;;10.80;;
21802;SDS011;18591;47.080;22.214;2023-01-10T01:36:54;16.55;;;10.63;;
21802;SDS011;18591;47.080;22.214;2023-01-10T01:38:58;15.15;;;11.48;;
21802;SDS011;18591;47.080;22.214;2023-01-10T01:41:00;13.55;;;10.38;;
21802;SDS011;18591;47.080;22.214;2023-01-10T01:43:02;15.38;;;9.82;;
21802;SDS011;18591;47.080;22.214;2023-01-10T01:47:13;14.85;;;8.75;;
21802;SDS011;18591;47.080;22.214;2023-01-10T01:49:25;9.82;;;8.20;;
21802;SDS011;18591;47.080;22.214;2023-01-10T01:51:27;11.13;;;8.05;;
21802;SDS011;18591;47.080;22.214;2023-01-10T01:55:39;13.25;;;8.13;;
21802;SDS011;18591;47.080;22.214;2023-01-10T01:57:43;13.43;;;9.18;;
21802;SDS011;18591;47.080;22.214;2023-01-10T01:59:48;12.25;;;8.80;;
21802;SDS011;18591;47.080;22.214;2023-01-10T02:01:53;8.95;;;7.13;;
21802;SDS011;18591;47.080;22.214;2023-01-10T02:05:02;9.90;;;7.78;;
21802;SDS011;18591;47.080;22.214;2023-01-10T02:06:35;9.57;;;7.33;;
21802;SDS011;18591;47.080;22.214;2023-01-10T02:08:38;11.73;;;8.32;;
21802;SDS011;18591;47.080;22.214;2023-01-10T02:10:48;8.45;;;6.97;;
21802;SDS011;18591;47.080;22.214;2023-01-10T02:12:56;11.82;;;8.10;;
21802;SDS011;18591;47.080;22.214;2023-01-10T02:15:03;16.95;;;10.68;;
21802;SDS011;18591;47.080;22.214;2023-01-10T02:17:07;24.10;;;12.93;;
21802;SDS011;18591;47.080;22.214;2023-01-10T02:19:16;22.45;;;11.95;;
21802;SDS011;18591;47.080;22.214;2023-01-10T02:21:33;16.05;;;8.10;;
21802;SDS011;18591;47.080;22.214;2023-01-10T02:33:13;8.98;;;4.88;;
21802;SDS011;18591;47.080;22.214;2023-01-10T02:35:41;6.55;;;5.72;;
21802;SDS011;18591;47.080;22.214;2023-01-10T02:46:36;5.82;;;4.93;;
21802;SDS011;18591;47.080;22.214;2023-01-10T02:48:39;7.25;;;5.10;;
21802;SDS011;18591;47.080;22.214;2023-01-10T02:50:43;6.53;;;5.10;;
21802;SDS011;18591;47.080;22.214;2023-01-10T02:52:51;6.03;;;5.20;;
21802;SDS011;18591;47.080;22.214;2023-01-10T02:54:54;8.07;;;5.30;;
21802;SDS011;18591;47.080;22.214;2023-01-10T02:59:28;7.25;;;5.35;;
21802;SDS011;18591;47.080;22.214;2023-01-10T03:01:58;6.72;;;5.32;;
21802;SDS011;18591;47.080;22.214;2023-01-10T03:09:18;7.40;;;5.38;;
21802;SDS011;18591;47.080;22.214;2023-01-10T03:11:34;8.65;;;6.25;;
21802;SDS011;18591;47.080;22.214;2023-01-10T03:13:46;8.10;;;6.65;;
21802;SDS011;18591;47.080;22.214;2023-01-10T03:15:53;7.55;;;6.18;;
21802;SDS011;18591;47.080;22.214;2023-01-10T03:17:59;7.75;;;6.32;;
21802;SDS011;18591;47.080;22.214;2023-01-10T03:20:04;9.10;;;6.80;;
21802;SDS011;18591;47.080;22.214;2023-01-10T03:22:07;10.57;;;8.05;;
21802;SDS011;18591;47.080;22.214;2023-01-10T03:24:15;9.70;;;7.97;;
21802;SDS011;18591;47.080;22.214;2023-01-10T03:26:22;14.30;;;8.05;;
21802;SDS011;18591;47.080;22.214;2023-01-10T03:28:38;9.18;;;7.00;;
21802;SDS011;18591;47.080;22.214;2023-01-10T03:33:27;7.82;;;6.45;;
21802;SDS011;18591;47.080;22.214;2023-01-10T03:35:34;9.57;;;6.53;;
21802;SDS011;18591;47.080;22.214;2023-01-10T03:37:57;10.70;;;7.50;;
21802;SDS011;18591;47.080;22.214;2023-01-10T03:42:27;10.10;;;6.47;;
21802;SDS011;18591;47.080;22.214;2023-01-10T03:45:00;7.30;;;5.97;;
21802;SDS011;18591;47.080;22.214;2023-01-10T03:47:09;8.87;;;7.10;;
21802;SDS011;18591;47.080;22.214;2023-01-10T03:49:31;8.43;;;6.72;;
21802;SDS011;18591;47.080;22.214;2023-01-10T03:51:36;8.77;;;6.88;;
21802;SDS011;18591;47.080;22.214;2023-01-10T03:53:39;10.63;;;7.13;;
21802;SDS011;18591;47.080;22.214;2023-01-10T03:55:41;11.07;;;8.52;;
21802;SDS011;18591;47.080;22.214;2023-01-10T03:57:45;11.95;;;7.60;;
21802;SDS011;18591;47.080;22.214;2023-01-10T03:59:48;11.25;;;7.32;;
21802;SDS011;18591;47.080;22.214;2023-01-10T04:01:53;11.15;;;8.55;;
21802;SDS011;18591;47.080;22.214;2023-01-10T04:03:55;10.52;;;7.07;;
21802;SDS011;18591;47.080;22.214;2023-01-10T04:05:57;12.35;;;7.55;;
21802;SDS011;18591;47.080;22.214;2023-01-10T04:07:59;7.65;;;6.40;;
21802;SDS011;18591;47.080;22.214;2023-01-10T04:10:04;8.80;;;6.90;;
21802;SDS011;18591;47.080;22.214;2023-01-10T04:12:07;10.10;;;7.03;;
21802;SDS011;18591;47.080;22.214;2023-01-10T04:14:08;6.78;;;5.63;;
21802;SDS011;18591;47.080;22.214;2023-01-10T04:16:10;10.30;;;6.27;;
21802;SDS011;18591;47.080;22.214;2023-01-10T04:18:12;11.63;;;6.47;;
21802;SDS011;18591;47.080;22.214;2023-01-10T04:20:16;7.72;;;6.07;;
21802;SDS011;18591;47.080;22.214;2023-01-10T04:22:18;8.00;;;6.40;;
21802;SDS011;18591;47.080;22.214;2023-01-10T04:24:20;10.50;;;7.03;;
21802;SDS011;18591;47.080;22.214;2023-01-10T04:26:22;8.70;;;6.83;;
21802;SDS011;18591;47.080;22.214;2023-01-10T04:28:24;9.23;;;6.50;;
21802;SDS011;18591;47.080;22.214;2023-01-10T04:30:26;9.10;;;6.70;;
21802;SDS011;18591;47.080;22.214;2023-01-10T04:32:28;8.07;;;6.28;;
21802;SDS011;18591;47.080;22.214;2023-01-10T04:34:30;7.32;;;6.28;;
21802;SDS011;18591;47.080;22.214;2023-01-10T04:36:32;7.78;;;6.10;;
21802;SDS011;18591;47.080;22.214;2023-01-10T04:38:34;9.30;;;6.40;;
21802;SDS011;18591;47.080;22.214;2023-01-10T04:40:36;9.90;;;6.70;;
21802;SDS011;18591;47.080;22.214;2023-01-10T04:42:38;7.57;;;6.50;;
21802;SDS011;18591;47.080;22.214;2023-01-10T04:44:39;8.50;;;6.50;;
21802;SDS011;18591;47.080;22.214;2023-01-10T04:46:41;11.57;;;6.35;;
21802;SDS011;18591;47.080;22.214;2023-01-10T04:48:43;9.63;;;6.90;;
21802;SDS011;18591;47.080;22.214;2023-01-10T04:50:52;13.48;;;9.68;;
21802;SDS011;18591;47.080;22.214;2023-01-10T04:52:54;19.70;;;13.98;;
21802;SDS011;18591;47.080;22.214;2023-01-10T04:54:56;18.70;;;14.35;;
21802;SDS011;18591;47.080;22.214;2023-01-10T04:56:58;20.10;;;13.73;;
21802;SDS011;18591;47.080;22.214;2023-01-10T04:59:00;18.63;;;12.68;;
21802;SDS011;18591;47.080;22.214;2023-01-10T05:01:06;16.20;;;11.83;;
21802;SDS011;18591;47.080;22.214;2023-01-10T05:03:12;16.30;;;11.98;;
21802;SDS011;18591;47.080;22.214;2023-01-10T05:05:14;12.93;;;10.15;;
21802;SDS011;18591;47.080;22.214;2023-01-10T05:07:16;12.65;;;9.23;;
21802;SDS011;18591;47.080;22.214;2023-01-10T05:09:21;13.27;;;9.90;;
21802;SDS011;18591;47.080;22.214;2023-01-10T05:11:23;13.63;;;10.10;;
21802;SDS011;18591;47.080;22.214;2023-01-10T05:13:24;12.07;;;9.00;;
21802;SDS011;18591;47.080;22.214;2023-01-10T05:15:26;11.57;;;8.70;;
21802;SDS011;18591;47.080;22.214;2023-01-10T05:17:28;12.57;;;9.25;;
21802;SDS011;18591;47.080;22.214;2023-01-10T05:19:30;10.37;;;8.20;;
21802;SDS011;18591;47.080;22.214;2023-01-10T05:21:32;11.02;;;9.02;;
21802;SDS011;18591;47.080;22.214;2023-01-10T05:23:34;14.90;;;11.45;;
21802;SDS011;18591;47.080;22.214;2023-01-10T05:25:37;18.70;;;12.05;;
21802;SDS011;18591;47.080;22.214;2023-01-10T05:27:41;18.25;;;12.70;;
21802;SDS011;18591;47.080;22.214;2023-01-10T05:29:44;23.23;;;15.47;;
21802;SDS011;18591;47.080;22.214;2023-01-10T05:31:46;30.88;;;16.95;;
21802;SDS011;18591;47.080;22.214;2023-01-10T05:33:49;30.57;;;19.50;;
21802;SDS011;18591;47.080;22.214;2023-01-10T05:35:52;26.92;;;16.38;;
21802;SDS011;18591;47.080;22.214;2023-01-10T05:37:53;26.47;;;17.20;;
21802;SDS011;18591;47.080;22.214;2023-01-10T05:39:55;25.57;;;16.53;;
21802;SDS011;18591;47.080;22.214;2023-01-10T05:41:57;25.42;;;16.52;;
21802;SDS011;18591;47.080;22.214;2023-01-10T05:43:59;21.13;;;12.98;;
21802;SDS011;18591;47.080;22.214;2023-01-10T05:46:01;18.30;;;11.57;;
21802;SDS011;18591;47.080;22.214;2023-01-10T05:48:03;17.10;;;10.87;;
21802;SDS011;18591;47.080;22.214;2023-01-10T05:50:05;18.42;;;11.95;;
21802;SDS011;18591;47.080;22.214;2023-01-10T05:52:07;16.05;;;11.27;;
21802;SDS011;18591;47.080;22.214;2023-01-10T05:54:09;8.25;;;6.63;;
21802;SDS011;18591;47.080;22.214;2023-01-10T05:56:11;9.13;;;6.60;;
21802;SDS011;18591;47.080;22.214;2023-01-10T05:58:13;12.25;;;7.75;;
21802;SDS011;18591;47.080;22.214;2023-01-10T06:00:15;10.32;;;7.35;;
21802;SDS011;18591;47.080;22.214;2023-01-10T06:02:18;10.20;;;8.43;;
21802;SDS011;18591;47.080;22.214;2023-01-10T06:04:20;14.15;;;9.80;;
21802;SDS011;18591;47.080;22.214;2023-01-10T06:06:21;21.33;;;13.13;;
21802;SDS011;18591;47.080;22.214;2023-01-10T06:08:23;21.35;;;13.55;;
21802;SDS011;18591;47.080;22.214;2023-01-10T06:10:25;16.73;;;11.88;;
21802;SDS011;18591;47.080;22.214;2023-01-10T06:12:27;14.75;;;11.23;;
21802;SDS011;18591;47.080;22.214;2023-01-10T06:14:29;12.60;;;9.77;;
21802;SDS011;18591;47.080;22.214;2023-01-10T06:16:31;14.20;;;9.60;;
21802;SDS011;18591;47.080;22.214;2023-01-10T06:18:33;13.90;;;10.00;;
21802;SDS011;18591;47.080;22.214;2023-01-10T06:20:35;10.68;;;8.93;;
21802;SDS011;18591;47.080;22.214;2023-01-10T06:22:40;13.53;;;10.53;;
21802;SDS011;18591;47.080;22.214;2023-01-10T06:24:43;15.73;;;10.25;;
21802;SDS011;18591;47.080;22.214;2023-01-10T06:26:45;15.60;;;10.87;;
21802;SDS011;18591;47.080;22.214;2023-01-10T06:28:47;11.80;;;8.83;;
21802;SDS011;18591;47.080;22.214;2023-01-10T06:30:48;10.48;;;8.43;;
21802;SDS011;18591;47.080;22.214;2023-01-10T06:32:51;9.82;;;8.05;;
21802;SDS011;18591;47.080;22.214;2023-01-10T06:34:53;14.10;;;10.47;;
21802;SDS011;18591;47.080;22.214;2023-01-10T06:36:56;18.77;;;13.00;;
21802;SDS011;18591;47.080;22.214;2023-01-10T06:38:58;22.03;;;16.10;;
21802;SDS011;18591;47.080;22.214;2023-01-10T06:41:01;20.73;;;15.73;;
21802;SDS011;18591;47.080;22.214;2023-01-10T06:43:13;18.00;;;14.60;;
21802;SDS011;18591;47.080;22.214;2023-01-10T06:45:15;15.75;;;11.00;;
21802;SDS011;18591;47.080;22.214;2023-01-10T06:47:17;13.33;;;8.97;;
21802;SDS011;18591;47.080;22.214;2023-01-10T06:49:22;10.77;;;8.53;;
21802;SDS011;18591;47.080;22.214;2023-01-10T06:51:24;27.67;;;18.90;;
21802;SDS011;18591;47.080;22.214;2023-01-10T06:53:26;24.42;;;14.43;;
21802;SDS011;18591;47.080;22.214;2023-01-10T06:55:28;13.80;;;10.75;;
21802;SDS011;18591;47.080;22.214;2023-01-10T06:57:32;18.13;;;12.55;;
21802;SDS011;18591;47.080;22.214;2023-01-10T06:59:38;20.35;;;12.13;;
21802;SDS011;18591;47.080;22.214;2023-01-10T07:01:40;22.27;;;15.60;;
21802;SDS011;18591;47.080;22.214;2023-01-10T07:03:42;22.67;;;16.02;;
21802;SDS011;18591;47.080;22.214;2023-01-10T07:05:44;23.73;;;15.50;;
21802;SDS011;18591;47.080;22.214;2023-01-10T07:07:46;31.38;;;18.52;;
21802;SDS011;18591;47.080;22.214;2023-01-10T07:09:48;23.80;;;17.08;;
21802;SDS011;18591;47.080;22.214;2023-01-10T07:11:51;26.55;;;18.63;;
21802;SDS011;18591;47.080;22.214;2023-01-10T07:13:53;24.92;;;17.98;;
21802;SDS011;18591;47.080;22.214;2023-01-10T07:16:11;24.43;;;18.47;;
21802;SDS011;18591;47.080;22.214;2023-01-10T07:18:16;20.75;;;15.07;;
21802;SDS011;18591;47.080;22.214;2023-01-10T07:20:20;18.42;;;14.77;;
21802;SDS011;18591;47.080;22.214;2023-01-10T07:22:25;17.45;;;13.45;;
21802;SDS011;18591;47.080;22.214;2023-01-10T07:24:27;17.30;;;12.20;;
21802;SDS011;18591;47.080;22.214;2023-01-10T07:26:29;17.70;;;11.93;;
21802;SDS011;18591;47.080;22.214;2023-01-10T07:28:31;14.30;;;11.23;;
21802;SDS011;18591;47.080;22.214;2023-01-10T07:30:35;11.82;;;9.75;;
21802;SDS011;18591;47.080;22.214;2023-01-10T07:32:38;11.57;;;9.87;;
21802;SDS011;18591;47.080;22.214;2023-01-10T07:34:39;14.33;;;11.63;;
21802;SDS011;18591;47.080;22.214;2023-01-10T07:36:42;16.17;;;11.90;;
21802;SDS011;18591;47.080;22.214;2023-01-10T07:38:43;14.77;;;11.57;;
21802;SDS011;18591;47.080;22.214;2023-01-10T07:40:46;17.25;;;12.82;;
21802;SDS011;18591;47.080;22.214;2023-01-10T07:42:47;25.10;;;17.58;;
21802;SDS011;18591;47.080;22.214;2023-01-10T07:44:50;24.92;;;17.77;;
21802;SDS011;18591;47.080;22.214;2023-01-10T07:46:52;27.42;;;19.60;;
21802;SDS011;18591;47.080;22.214;2023-01-10T07:48:54;19.88;;;14.50;;
21802;SDS011;18591;47.080;22.214;2023-01-10T07:50:57;14.70;;;11.10;;
21802;SDS011;18591;47.080;22.214;2023-01-10T07:53:00;12.18;;;9.40;;
21802;SDS011;18591;47.080;22.214;2023-01-10T07:55:04;10.50;;;8.63;;
21802;SDS011;18591;47.080;22.214;2023-01-10T07:57:10;10.15;;;7.80;;
21802;SDS011;18591;47.080;22.214;2023-01-10T07:59:12;13.33;;;9.97;;
21802;SDS011;18591;47.080;22.214;2023-01-10T08:01:14;12.07;;;10.30;;
21802;SDS011;18591;47.080;22.214;2023-01-10T08:03:16;14.60;;;12.40;;
21802;SDS011;18591;47.080;22.214;2023-01-10T08:05:19;17.75;;;14.13;;
21802;SDS011;18591;47.080;22.214;2023-01-10T08:07:22;18.55;;;13.63;;
21802;SDS011;18591;47.080;22.214;2023-01-10T08:09:23;22.37;;;16.70;;
21802;SDS011;18591;47.080;22.214;2023-01-10T08:11:25;17.95;;;13.57;;
21802;SDS011;18591;47.080;22.214;2023-01-10T08:13:28;21.98;;;13.40;;
21802;SDS011;18591;47.080;22.214;2023-01-10T08:15:30;20.67;;;13.80;;
21802;SDS011;18591;47.080;22.214;2023-01-10T08:17:33;14.15;;;11.00;;
21802;SDS011;18591;47.080;22.214;2023-01-10T08:19:35;14.38;;;9.65;;
21802;SDS011;18591;47.080;22.214;2023-01-10T08:21:37;12.80;;;9.55;;
21802;SDS011;18591;47.080;22.214;2023-01-10T08:23:39;11.63;;;9.40;;
21802;SDS011;18591;47.080;22.214;2023-01-10T08:25:41;19.23;;;13.10;;
21802;SDS011;18591;47.080;22.214;2023-01-10T08:27:43;15.97;;;12.03;;
21802;SDS011;18591;47.080;22.214;2023-01-10T08:29:45;21.85;;;13.98;;
21802;SDS011;18591;47.080;22.214;2023-01-10T08:31:47;18.77;;;13.65;;
21802;SDS011;18591;47.080;22.214;2023-01-10T08:33:49;16.38;;;11.98;;
21802;SDS011;18591;47.080;22.214;2023-01-10T08:35:51;15.75;;;11.65;;
21802;SDS011;18591;47.080;22.214;2023-01-10T08:37:56;15.63;;;12.27;;
21802;SDS011;18591;47.080;22.214;2023-01-10T08:40:00;15.73;;;12.32;;
21802;SDS011;18591;47.080;22.214;2023-01-10T08:42:02;14.40;;;12.17;;
21802;SDS011;18591;47.080;22.214;2023-01-10T08:44:04;13.97;;;11.33;;
21802;SDS011;18591;47.080;22.214;2023-01-10T08:46:06;14.50;;;10.57;;
21802;SDS011;18591;47.080;22.214;2023-01-10T08:48:08;14.63;;;9.45;;
21802;SDS011;18591;47.080;22.214;2023-01-10T08:50:11;12.30;;;8.60;;
21802;SDS011;18591;47.080;22.214;2023-01-10T08:52:13;14.38;;;8.68;;
21802;SDS011;18591;47.080;22.214;2023-01-10T08:54:14;12.00;;;9.00;;
21802;SDS011;18591;47.080;22.214;2023-01-10T08:56:16;10.95;;;7.93;;
21802;SDS011;18591;47.080;22.214;2023-01-10T08:58:19;17.27;;;12.27;;
21802;SDS011;18591;47.080;22.214;2023-01-10T09:00:21;20.33;;;14.88;;
21802;SDS011;18591;47.080;22.214;2023-01-10T09:02:23;18.73;;;13.90;;
21802;SDS011;18591;47.080;22.214;2023-01-10T09:04:25;16.58;;;12.80;;
21802;SDS011;18591;47.080;22.214;2023-01-10T09:06:30;19.50;;;13.75;;
21802;SDS011;18591;47.080;22.214;2023-01-10T09:08:33;19.35;;;15.25;;
21802;SDS011;18591;47.080;22.214;2023-01-10T09:10:36;27.17;;;17.50;;
21802;SDS011;18591;47.080;22.214;2023-01-10T09:12:38;26.45;;;19.63;;
21802;SDS011;18591;47.080;22.214;2023-01-10T09:14:55;26.27;;;18.58;;
21802;SDS011;18591;47.080;22.214;2023-01-10T09:16:57;26.30;;;19.93;;
21802;SDS011;18591;47.080;22.214;2023-01-10T09:18:59;29.65;;;20.15;;
21802;SDS011;18591;47.080;22.214;2023-01-10T09:21:01;28.38;;;19.40;;
21802;SDS011;18591;47.080;22.214;2023-01-10T09:23:06;26.42;;;18.30;;
21802;SDS011;18591;47.080;22.214;2023-01-10T09:25:10;24.60;;;17.75;;
21802;SDS011;18591;47.080;22.214;2023-01-10T09:27:12;24.88;;;18.73;;
21802;SDS011;18591;47.080;22.214;2023-01-10T09:29:14;32.20;;;22.08;;
21802;SDS011;18591;47.080;22.214;2023-01-10T09:31:16;27.05;;;20.25;;
21802;SDS011;18591;47.080;22.214;2023-01-10T09:33:18;31.00;;;22.27;;
21802;SDS011;18591;47.080;22.214;2023-01-10T09:35:21;35.70;;;24.87;;
21802;SDS011;18591;47.080;22.214;2023-01-10T09:37:23;33.33;;;23.48;;
21802;SDS011;18591;47.080;22.214;2023-01-10T09:39:25;32.95;;;20.92;;
21802;SDS011;18591;47.080;22.214;2023-01-10T09:46:10;23.70;;;16.13;;
21802;SDS011;18591;47.080;22.214;2023-01-10T09:52:50;29.97;;;21.43;;
21802;SDS011;18591;47.080;22.214;2023-01-10T09:54:59;36.97;;;26.17;;
21802;SDS011;18591;47.080;22.214;2023-01-10T09:57:05;39.57;;;28.30;;
21802;SDS011;18591;47.080;22.214;2023-01-10T09:59:17;44.15;;;31.02;;
21802;SDS011;18591;47.080;22.214;2023-01-10T10:01:22;40.95;;;28.42;;
21802;SDS011;18591;47.080;22.214;2023-01-10T10:03:37;44.75;;;30.23;;
21802;SDS011;18591;47.080;22.214;2023-01-10T10:05:42;48.67;;;33.95;;
21802;SDS011;18591;47.080;22.214;2023-01-10T10:07:44;42.67;;;32.25;;
21802;SDS011;18591;47.080;22.214;2023-01-10T10:09:47;46.97;;;31.67;;
21802;SDS011;18591;47.080;22.214;2023-01-10T10:11:56;37.55;;;26.55;;
21802;SDS011;18591;47.080;22.214;2023-01-10T10:14:41;31.00;;;24.02;;
21802;SDS011;18591;47.080;22.214;2023-01-10T10:17:07;32.10;;;24.95;;
21802;SDS011;18591;47.080;22.214;2023-01-10T10:22:23;57.08;;;37.05;;
21802;SDS011;18591;47.080;22.214;2023-01-10T10:31:47;34.88;;;26.05;;
21802;SDS011;18591;47.080;22.214;2023-01-10T10:36:23;26.98;;;19.70;;
21802;SDS011;18591;47.080;22.214;2023-01-10T10:38:33;23.48;;;16.58;;
21802;SDS011;18591;47.080;22.214;2023-01-10T10:40:40;23.13;;;14.03;;
21802;SDS011;18591;47.080;22.214;2023-01-10T10:42:48;20.07;;;13.80;;
21802;SDS011;18591;47.080;22.214;2023-01-10T10:44:54;18.45;;;13.35;;
21802;SDS011;18591;47.080;22.214;2023-01-10T10:47:27;18.47;;;14.07;;
21802;SDS011;18591;47.080;22.214;2023-01-10T10:49:48;16.35;;;12.73;;
21802;SDS011;18591;47.080;22.214;2023-01-10T10:52:11;15.40;;;11.77;;
21802;SDS011;18591;47.080;22.214;2023-01-10T10:54:20;18.65;;;12.82;;
21802;SDS011;18591;47.080;22.214;2023-01-10T10:56:24;24.60;;;17.73;;
21802;SDS011;18591;47.080;22.214;2023-01-10T10:58:28;61.92;;;39.80;;
21802;SDS011;18591;47.080;22.214;2023-01-10T11:00:32;99.47;;;64.10;;
21802;SDS011;18591;47.080;22.214;2023-01-10T11:02:38;97.40;;;64.57;;
21802;SDS011;18591;47.080;22.214;2023-01-10T11:04:44;111.33;;;71.57;;
21802;SDS011;18591;47.080;22.214;2023-01-10T11:06:46;97.25;;;66.20;;
21802;SDS011;18591;47.080;22.214;2023-01-10T11:08:52;94.83;;;64.50;;
21802;SDS011;18591;47.080;22.214;2023-01-10T11:11:01;86.90;;;58.55;;
21802;SDS011;18591;47.080;22.214;2023-01-10T11:13:08;64.00;;;45.17;;
21802;SDS011;18591;47.080;22.214;2023-01-10T11:17:50;41.70;;;30.45;;
21802;SDS011;18591;47.080;22.214;2023-01-10T11:20:14;53.10;;;39.15;;
21802;SDS011;18591;47.080;22.214;2023-01-10T11:22:18;50.30;;;37.27;;
21802;SDS011;18591;47.080;22.214;2023-01-10T11:26:36;48.35;;;37.15;;
21802;SDS011;18591;47.080;22.214;2023-01-10T11:28:41;45.80;;;34.35;;
21802;SDS011;18591;47.080;22.214;2023-01-10T11:30:46;39.80;;;30.07;;
21802;SDS011;18591;47.080;22.214;2023-01-10T11:32:52;35.30;;;27.50;;
21802;SDS011;18591;47.080;22.214;2023-01-10T11:34:58;27.63;;;20.20;;
21802;SDS011;18591;47.080;22.214;2023-01-10T11:37:24;22.50;;;18.40;;
21802;SDS011;18591;47.080;22.214;2023-01-10T11:39:30;23.63;;;18.70;;
21802;SDS011;18591;47.080;22.214;2023-01-10T11:41:33;23.15;;;16.73;;
21802;SDS011;18591;47.080;22.214;2023-01-10T11:43:36;20.37;;;15.97;;
21802;SDS011;18591;47.080;22.214;2023-01-10T11:45:39;25.85;;;17.90;;
21802;SDS011;18591;47.080;22.214;2023-01-10T11:47:57;22.47;;;17.53;;
21802;SDS011;18591;47.080;22.214;2023-01-10T11:50:09;26.33;;;18.95;;
21802;SDS011;18591;47.080;22.214;2023-01-10T11:52:15;28.02;;;20.02;;
21802;SDS011;18591;47.080;22.214;2023-01-10T11:54:27;29.85;;;22.13;;
21802;SDS011;18591;47.080;22.214;2023-01-10T11:56:31;36.27;;;26.17;;
21802;SDS011;18591;47.080;22.214;2023-01-10T11:58:35;36.60;;;25.77;;
21802;SDS011;18591;47.080;22.214;2023-01-10T12:00:45;35.07;;;25.47;;
21802;SDS011;18591;47.080;22.214;2023-01-10T12:02:49;34.03;;;26.23;;
21802;SDS011;18591;47.080;22.214;2023-01-10T12:04:53;32.00;;;25.02;;
21802;SDS011;18591;47.080;22.214;2023-01-10T12:06:58;35.37;;;25.03;;
21802;SDS011;18591;47.080;22.214;2023-01-10T12:09:07;32.03;;;24.05;;
21802;SDS011;18591;47.080;22.214;2023-01-10T12:11:34;28.48;;;22.75;;
21802;SDS011;18591;47.080;22.214;2023-01-10T12:13:46;30.30;;;22.63;;
21802;SDS011;18591;47.080;22.214;2023-01-10T12:15:50;25.38;;;20.15;;
21802;SDS011;18591;47.080;22.214;2023-01-10T12:17:53;29.13;;;22.93;;
21802;SDS011;18591;47.080;22.214;2023-01-10T12:19:59;30.48;;;22.15;;
21802;SDS011;18591;47.080;22.214;2023-01-10T12:22:02;29.93;;;20.53;;
21802;SDS011;18591;47.080;22.214;2023-01-10T12:26:16;32.53;;;23.25;;
21802;SDS011;18591;47.080;22.214;2023-01-10T12:28:23;30.20;;;23.23;;
21802;SDS011;18591;47.080;22.214;2023-01-10T12:30:31;38.00;;;25.40;;
21802;SDS011;18591;47.080;22.214;2023-01-10T12:32:50;43.72;;;30.60;;
21802;SDS011;18591;47.080;22.214;2023-01-10T12:34:59;43.42;;;29.00;;
21802;SDS011;18591;47.080;22.214;2023-01-10T12:39:20;38.00;;;25.58;;
21802;SDS011;18591;47.080;22.214;2023-01-10T12:44:11;34.20;;;23.92;;
21802;SDS011;18591;47.080;22.214;2023-01-10T12:46:23;28.83;;;21.57;;
21802;SDS011;18591;47.080;22.214;2023-01-10T12:49:16;24.67;;;17.17;;
21802;SDS011;18591;47.080;22.214;2023-01-10T12:51:19;27.83;;;19.53;;
21802;SDS011;18591;47.080;22.214;2023-01-10T12:55:37;172.85;;;102.35;;
21802;SDS011;18591;47.080;22.214;2023-01-10T12:57:41;142.45;;;89.25;;
21802;SDS011;18591;47.080;22.214;2023-01-10T12:59:52;126.97;;;83.50;;
21802;SDS011;18591;47.080;22.214;2023-01-10T13:01:56;121.27;;;82.03;;
21802;SDS011;18591;47.080;22.214;2023-01-10T13:04:04;103.23;;;73.87;;
21802;SDS011;18591;47.080;22.214;2023-01-10T13:06:15;80.60;;;54.53;;
21802;SDS011;18591;47.080;22.214;2023-01-10T13:08:26;85.10;;;49.50;;
21802;SDS011;18591;47.080;22.214;2023-01-10T13:10:31;93.67;;;49.93;;
21802;SDS011;18591;47.080;22.214;2023-01-10T13:12:36;80.93;;;43.50;;
21802;SDS011;18591;47.080;22.214;2023-01-10T13:17:50;54.83;;;35.55;;
21802;SDS011;18591;47.080;22.214;2023-01-10T13:19:27;44.90;;;32.63;;
21802;SDS011;18591;47.080;22.214;2023-01-10T13:21:30;31.27;;;23.27;;